createdAt,value
2023-04-11T00:00:07.656Z,1003.97
2023-04-11T00:01:06.980Z,1003.96
2023-04-11T00:02:07.802Z,1003.90
2023-04-11T00:03:08.069Z,1003.95
2023-04-11T00:04:07.169Z,1003.97
2023-04-11T00:05:08.077Z,1003.91
2023-04-11T00:06:06.917Z,1003.87
2023-04-11T00:07:07.601Z,1003.95
2023-04-11T00:08:07.591Z,1003.86
2023-04-11T00:09:07.579Z,1003.91
2023-04-11T00:10:07.546Z,1003.91
2023-04-11T00:11:07.557Z,1003.95
2023-04-11T00:12:07.542Z,1003.91
2023-04-11T00:13:07.566Z,1003.88
2023-04-11T00:14:07.538Z,1003.83
2023-04-11T00:15:07.792Z,1003.90
2023-04-11T00:16:06.854Z,1003.91
2023-04-11T00:17:07.497Z,1003.85
2023-04-11T00:18:07.499Z,1003.89
2023-04-11T00:19:07.494Z,1003.85
2023-04-11T00:20:06.802Z,1003.81
2023-04-11T00:21:06.759Z,1003.78
2023-04-11T00:22:07.440Z,1003.81
2023-04-11T00:23:07.423Z,1003.82
2023-04-11T00:24:07.412Z,1003.84
2023-04-11T00:25:07.704Z,1003.82
2023-04-11T00:26:07.389Z,1003.79
2023-04-11T00:27:07.645Z,1003.81
2023-04-11T00:28:07.370Z,1003.83
2023-04-11T00:29:07.371Z,1003.82
2023-04-11T00:30:06.676Z,1003.76
2023-04-11T00:31:06.663Z,1003.82
2023-04-11T00:32:06.714Z,1003.82
2023-04-11T00:33:07.333Z,1003.82
2023-04-11T00:34:07.310Z,1003.82
2023-04-11T00:35:08.600Z,1003.75
2023-04-11T00:36:07.344Z,1003.69
2023-04-11T00:37:07.288Z,1003.71
2023-04-11T00:38:06.582Z,1003.73
2023-04-11T00:39:07.256Z,1003.72
2023-04-11T00:40:07.224Z,1003.71
2023-04-11T00:41:06.543Z,1003.62
2023-04-11T00:42:07.212Z,1003.69
2023-04-11T00:43:07.472Z,1003.64
2023-04-11T00:44:07.443Z,1003.73
2023-04-11T00:45:07.470Z,1003.71
2023-04-11T00:46:07.509Z,1003.66
2023-04-11T00:47:07.155Z,1003.67
2023-04-11T00:48:07.171Z,1003.70
2023-04-11T00:49:07.137Z,1003.61
2023-04-11T00:50:07.111Z,1003.63
2023-04-11T00:51:07.118Z,1003.60
2023-04-11T00:52:07.105Z,1003.64
2023-04-11T00:53:06.415Z,1003.59
2023-04-11T00:54:06.400Z,1003.60
2023-04-11T00:55:07.050Z,1003.54
2023-04-11T00:56:07.102Z,1003.58
2023-04-11T00:57:06.384Z,1003.52
2023-04-11T00:58:06.361Z,1003.45
2023-04-11T00:59:07.026Z,1003.57
2023-04-11T01:00:07.166Z,1003.61
2023-04-11T01:01:06.353Z,1003.55
2023-04-11T01:02:07.133Z,1003.60
2023-04-11T01:03:07.192Z,1003.61
2023-04-11T01:04:07.119Z,1003.75
2023-04-11T01:05:06.945Z,1003.93
2023-04-11T01:06:06.262Z,1004.03
2023-04-11T01:07:06.942Z,1003.94
2023-04-11T01:08:06.934Z,1003.90
2023-04-11T01:09:06.925Z,1003.85
2023-04-11T01:10:06.897Z,1003.83
2023-04-11T01:11:06.902Z,1003.82
2023-04-11T01:12:06.211Z,1003.89
2023-04-11T01:13:06.883Z,1003.91
2023-04-11T01:14:06.872Z,1003.93
2023-04-11T01:15:06.195Z,1003.94
2023-04-11T01:16:06.176Z,1004.02
2023-04-11T01:17:06.855Z,1003.91
2023-04-11T01:18:06.880Z,1003.92
2023-04-11T01:19:06.822Z,1003.95
2023-04-11T01:20:06.150Z,1003.84
2023-04-11T01:21:06.798Z,1003.79
2023-04-11T01:22:06.117Z,1003.81
2023-04-11T01:23:06.108Z,1003.77
2023-04-11T01:24:06.777Z,1003.81
2023-04-11T01:25:06.744Z,1003.77
2023-04-11T01:26:06.055Z,1003.67
2023-04-11T01:27:06.050Z,1003.76
2023-04-11T01:28:06.725Z,1003.68
2023-04-11T01:29:06.720Z,1003.68
2023-04-11T01:30:06.035Z,1003.74
2023-04-11T01:31:06.812Z,1003.75
2023-04-11T01:32:06.689Z,1003.68
2023-04-11T01:33:06.007Z,1003.77
2023-04-11T01:34:06.006Z,1003.80
2023-04-11T01:35:05.998Z,1003.78
2023-04-11T01:36:06.660Z,1003.75
2023-04-11T01:37:07.406Z,1003.76
2023-04-11T01:38:05.936Z,1003.80
2023-04-11T01:39:06.602Z,1003.78
2023-04-11T01:40:05.947Z,1003.76
2023-04-11T01:41:06.578Z,1003.79
2023-04-11T01:42:06.852Z,1003.72
2023-04-11T01:43:07.317Z,1003.77
2023-04-11T01:44:05.859Z,1003.70
2023-04-11T01:45:06.511Z,1003.77
2023-04-11T01:46:06.781Z,1003.78
2023-04-11T01:47:06.772Z,1003.78
2023-04-11T01:48:06.586Z,1003.77
2023-04-11T01:49:06.789Z,1003.76
2023-04-11T01:50:06.773Z,1003.72
2023-04-11T01:51:06.731Z,1003.73
2023-04-11T01:52:06.458Z,1003.74
2023-04-11T01:53:06.710Z,1003.70
2023-04-11T01:54:06.695Z,1003.72
2023-04-11T01:55:06.700Z,1003.68
2023-04-11T01:56:06.431Z,1003.66
2023-04-11T01:57:06.427Z,1003.64
2023-04-11T01:58:06.663Z,1003.63
2023-04-11T01:59:06.643Z,1003.66
2023-04-11T02:00:06.362Z,1003.60
2023-04-11T02:01:06.641Z,1003.67
2023-04-11T02:02:06.434Z,1003.67
2023-04-11T02:03:06.522Z,1003.73
2023-04-11T02:04:06.730Z,1003.71
2023-04-11T02:05:06.289Z,1003.71
2023-04-11T02:06:06.303Z,1003.73
2023-04-11T02:07:06.289Z,1003.75
2023-04-11T02:08:06.281Z,1003.71
2023-04-11T02:09:07.540Z,1003.70
2023-04-11T02:10:06.242Z,1003.72
2023-04-11T02:11:07.513Z,1003.67
2023-04-11T02:12:06.234Z,1003.66
2023-04-11T02:13:06.497Z,1003.65
2023-04-11T02:14:06.503Z,1003.74
2023-04-11T02:15:06.498Z,1003.72
2023-04-11T02:16:06.481Z,1003.76
2023-04-11T02:17:06.451Z,1003.73
2023-04-11T02:18:06.433Z,1003.71
2023-04-11T02:19:06.444Z,1003.73
2023-04-11T02:20:06.147Z,1003.69
2023-04-11T02:21:06.125Z,1003.72
2023-04-11T02:22:06.126Z,1003.77
2023-04-11T02:23:06.392Z,1003.71
2023-04-11T02:24:06.376Z,1003.76
2023-04-11T02:25:06.080Z,1003.76
2023-04-11T02:26:06.099Z,1003.75
2023-04-11T02:27:06.094Z,1003.74
2023-04-11T02:28:08.127Z,1003.76
2023-04-11T02:29:06.051Z,1003.79
2023-04-11T02:30:06.335Z,1003.78
2023-04-11T02:31:06.363Z,1003.78
2023-04-11T02:32:05.422Z,1003.81
2023-04-11T02:33:06.315Z,1003.75
2023-04-11T02:34:06.002Z,1003.77
2023-04-11T02:35:05.987Z,1003.79
2023-04-11T02:36:05.471Z,1003.76
2023-04-11T02:37:05.297Z,1003.76
2023-04-11T02:38:06.257Z,1003.75
2023-04-11T02:39:05.945Z,1003.77
2023-04-11T02:40:05.940Z,1003.76
2023-04-11T02:41:05.913Z,1003.77
2023-04-11T02:42:05.239Z,1003.76
2023-04-11T02:43:05.904Z,1003.69
2023-04-11T02:44:06.163Z,1003.76
2023-04-11T02:45:06.134Z,1003.74
2023-04-11T02:46:12.619Z,1003.79
2023-04-11T02:47:06.246Z,1003.76
2023-04-11T02:48:05.868Z,1003.80
2023-04-11T02:49:06.093Z,1003.83
2023-04-11T02:50:05.824Z,1003.83
2023-04-11T02:51:06.089Z,1003.88
2023-04-11T02:52:05.116Z,1003.83
2023-04-11T02:53:05.798Z,1003.87
2023-04-11T02:54:05.099Z,1003.85
2023-04-11T02:55:05.093Z,1003.86
2023-04-11T02:56:05.095Z,1003.90
2023-04-11T02:57:05.073Z,1003.85
2023-04-11T02:58:05.755Z,1003.79
2023-04-11T02:59:05.042Z,1003.80
2023-04-11T03:00:05.049Z,1003.74
2023-04-11T03:01:05.055Z,1003.80
2023-04-11T03:02:05.731Z,1003.74
2023-04-11T03:03:05.787Z,1003.79
2023-04-11T03:04:05.753Z,1003.80
2023-04-11T03:05:05.953Z,1003.82
2023-04-11T03:06:05.650Z,1003.86
2023-04-11T03:07:05.013Z,1003.85
2023-04-11T03:08:05.631Z,1003.89
2023-04-11T03:09:04.939Z,1003.86
2023-04-11T03:10:04.949Z,1003.86
2023-04-11T03:11:05.579Z,1003.83
2023-04-11T03:12:05.586Z,1003.88
2023-04-11T03:13:05.578Z,1003.82
2023-04-11T03:14:05.569Z,1003.80
2023-04-11T03:15:05.552Z,1003.82
2023-04-11T03:16:05.553Z,1003.85
2023-04-11T03:17:05.575Z,1003.81
2023-04-11T03:18:04.863Z,1003.77
2023-04-11T03:19:05.505Z,1003.77
2023-04-11T03:20:05.473Z,1003.78
2023-04-11T03:21:04.812Z,1003.81
2023-04-11T03:22:04.810Z,1003.85
2023-04-11T03:23:05.482Z,1003.82
2023-04-11T03:24:04.804Z,1003.81
2023-04-11T03:25:04.810Z,1003.80
2023-04-11T03:26:05.417Z,1003.82
2023-04-11T03:27:05.436Z,1003.85
2023-04-11T03:28:04.733Z,1003.83
2023-04-11T03:29:04.733Z,1003.88
2023-04-11T03:30:05.479Z,1003.89
2023-04-11T03:31:05.451Z,1003.85
2023-04-11T03:32:05.378Z,1003.78
2023-04-11T03:33:05.438Z,1003.86
2023-04-11T03:34:04.672Z,1003.89
2023-04-11T03:35:04.675Z,1003.86
2023-04-11T03:36:05.340Z,1003.87
2023-04-11T03:37:04.633Z,1003.87
2023-04-11T03:38:05.312Z,1003.81
2023-04-11T03:39:05.211Z,1003.86
2023-04-11T03:40:05.264Z,1003.84
2023-04-11T03:41:05.274Z,1003.83
2023-04-11T03:42:05.264Z,1003.92
2023-04-11T03:43:05.042Z,1003.87
2023-04-11T03:44:05.244Z,1003.95
2023-04-11T03:45:04.585Z,1003.91
2023-04-11T03:46:04.543Z,1003.94
2023-04-11T03:47:05.361Z,1003.86
2023-04-11T03:48:05.232Z,1003.90
2023-04-11T03:49:05.189Z,1003.92
2023-04-11T03:50:04.583Z,1003.94
2023-04-11T03:51:05.150Z,1003.96
2023-04-11T03:52:05.440Z,1003.97
2023-04-11T03:53:05.152Z,1003.94
2023-04-11T03:54:05.143Z,1003.93
2023-04-11T03:55:05.121Z,1003.99
2023-04-11T03:56:05.096Z,1003.99
2023-04-11T03:57:05.107Z,1004.03
2023-04-11T03:58:04.506Z,1004.08
2023-04-11T03:59:04.394Z,1004.00
2023-04-11T04:00:05.066Z,1004.12
2023-04-11T04:01:04.385Z,1004.14
2023-04-11T04:02:04.426Z,1004.13
2023-04-11T04:03:05.187Z,1004.11
2023-04-11T04:04:05.362Z,1004.11
2023-04-11T04:05:05.075Z,1004.07
2023-04-11T04:06:04.978Z,1004.11
2023-04-11T04:07:04.346Z,1004.14
2023-04-11T04:08:04.286Z,1004.18
2023-04-11T04:09:04.289Z,1004.12
2023-04-11T04:10:04.981Z,1004.07
2023-04-11T04:11:04.923Z,1004.04
2023-04-11T04:12:04.935Z,1004.12
2023-04-11T04:13:04.939Z,1004.18
2023-04-11T04:14:04.248Z,1004.43
2023-04-11T04:15:04.227Z,1004.62
2023-04-11T04:16:04.367Z,1004.42
2023-04-11T04:17:04.878Z,1004.52
2023-04-11T04:18:04.895Z,1004.49
2023-04-11T04:19:04.160Z,1004.47
2023-04-11T04:20:04.830Z,1004.39
2023-04-11T04:21:04.153Z,1004.32
2023-04-11T04:22:04.839Z,1004.38
2023-04-11T04:23:04.871Z,1004.34
2023-04-11T04:24:04.801Z,1004.39
2023-04-11T04:25:04.770Z,1004.38
2023-04-11T04:26:04.783Z,1004.38
2023-04-11T04:27:04.770Z,1004.36
2023-04-11T04:28:04.091Z,1004.34
2023-04-11T04:29:04.852Z,1004.35
2023-04-11T04:30:04.921Z,1004.40
2023-04-11T04:31:04.707Z,1004.49
2023-04-11T04:32:04.145Z,1004.45
2023-04-11T04:33:04.744Z,1004.49
2023-04-11T04:34:04.694Z,1004.50
2023-04-11T04:35:04.681Z,1004.51
2023-04-11T04:36:04.716Z,1004.48
2023-04-11T04:37:03.998Z,1004.37
2023-04-11T04:38:04.654Z,1004.44
2023-04-11T04:39:04.637Z,1004.44
2023-04-11T04:40:04.645Z,1004.41
2023-04-11T04:41:04.598Z,1004.40
2023-04-11T04:42:04.621Z,1004.36
2023-04-11T04:43:03.908Z,1004.43
2023-04-11T04:44:04.593Z,1004.38
2023-04-11T04:45:03.888Z,1004.38
2023-04-11T04:46:03.979Z,1004.38
2023-04-11T04:47:04.571Z,1004.41
2023-04-11T04:48:04.567Z,1004.48
2023-04-11T04:49:03.851Z,1004.42
2023-04-11T04:50:04.528Z,1004.44
2023-04-11T04:51:04.504Z,1004.50
2023-04-11T04:52:03.812Z,1004.51
2023-04-11T04:53:04.492Z,1004.52
2023-04-11T04:54:03.805Z,1004.50
2023-04-11T04:55:03.797Z,1004.51
2023-04-11T04:56:04.443Z,1004.54
2023-04-11T04:57:04.448Z,1004.53
2023-04-11T04:58:04.436Z,1004.55
2023-04-11T04:59:04.431Z,1004.53
2023-04-11T05:00:03.740Z,1004.53
2023-04-11T05:01:04.428Z,1004.55
2023-04-11T05:02:04.557Z,1004.60
2023-04-11T05:03:04.497Z,1004.58
2023-04-11T05:04:04.464Z,1004.62
2023-04-11T05:05:04.391Z,1004.55
2023-04-11T05:06:04.340Z,1004.59
2023-04-11T05:07:04.341Z,1004.60
2023-04-11T05:08:04.329Z,1004.60
2023-04-11T05:09:03.635Z,1004.57
2023-04-11T05:10:04.317Z,1004.62
2023-04-11T05:11:04.273Z,1004.63
2023-04-11T05:12:06.062Z,1004.63
2023-04-11T05:13:03.591Z,1004.60
2023-04-11T05:14:04.270Z,1004.63
2023-04-11T05:15:04.251Z,1004.64
2023-04-11T05:16:04.232Z,1004.63
2023-04-11T05:17:03.622Z,1004.62
2023-04-11T05:18:03.614Z,1004.65
2023-04-11T05:19:04.208Z,1004.70
2023-04-11T05:20:04.208Z,1004.69
2023-04-11T05:21:04.166Z,1004.72
2023-04-11T05:22:04.182Z,1004.71
2023-04-11T05:23:04.165Z,1004.79
2023-04-11T05:24:03.480Z,1004.79
2023-04-11T05:25:03.508Z,1004.78
2023-04-11T05:26:04.203Z,1004.80
2023-04-11T05:27:04.133Z,1004.81
2023-04-11T05:28:03.489Z,1004.85
2023-04-11T05:29:04.115Z,1004.79
2023-04-11T05:30:04.094Z,1004.84
2023-04-11T05:31:04.108Z,1004.81
2023-04-11T05:32:04.065Z,1004.85
2023-04-11T05:33:04.110Z,1004.87
2023-04-11T05:34:04.063Z,1004.88
2023-04-11T05:35:03.351Z,1004.94
2023-04-11T05:36:04.052Z,1005.01
2023-04-11T05:37:04.011Z,1005.04
2023-04-11T05:38:04.009Z,1005.02
2023-04-11T05:39:03.315Z,1005.04
2023-04-11T05:40:03.331Z,1005.05
2023-04-11T05:41:03.987Z,1005.00
2023-04-11T05:42:04.546Z,1005.06
2023-04-11T05:43:03.953Z,1005.09
2023-04-11T05:44:03.276Z,1005.17
2023-04-11T05:45:03.271Z,1005.16
2023-04-11T05:46:03.314Z,1005.18
2023-04-11T05:47:03.232Z,1005.15
2023-04-11T05:48:03.943Z,1005.21
2023-04-11T05:49:03.196Z,1005.23
2023-04-11T05:50:03.223Z,1005.25
2023-04-11T05:51:03.863Z,1005.28
2023-04-11T05:52:03.852Z,1005.25
2023-04-11T05:53:03.174Z,1005.28
2023-04-11T05:54:03.832Z,1005.29
2023-04-11T05:55:03.810Z,1005.32
2023-04-11T05:56:03.852Z,1005.25
2023-04-11T05:57:03.142Z,1005.28
2023-04-11T05:58:03.117Z,1005.35
2023-04-11T05:59:03.107Z,1005.28
2023-04-11T06:00:03.130Z,1005.34
2023-04-11T06:01:03.087Z,1005.28
2023-04-11T06:02:03.784Z,1005.31
2023-04-11T06:03:03.125Z,1005.31
2023-04-11T06:04:03.354Z,1005.25
2023-04-11T06:05:03.736Z,1005.34
2023-04-11T06:06:03.031Z,1005.31
2023-04-11T06:07:03.702Z,1005.42
2023-04-11T06:08:03.686Z,1005.33
2023-04-11T06:09:03.697Z,1005.22
2023-04-11T06:10:03.638Z,1005.28
2023-04-11T06:11:03.755Z,1005.39
2023-04-11T06:12:02.964Z,1005.30
2023-04-11T06:13:03.625Z,1005.32
2023-04-11T06:14:03.614Z,1005.31
2023-04-11T06:15:03.594Z,1005.29
2023-04-11T06:16:03.644Z,1005.29
2023-04-11T06:17:02.933Z,1005.37
2023-04-11T06:18:02.946Z,1005.42
2023-04-11T06:19:02.884Z,1005.35
2023-04-11T06:20:05.475Z,1005.38
2023-04-11T06:21:03.550Z,1005.44
2023-04-11T06:22:02.866Z,1005.46
2023-04-11T06:23:02.845Z,1005.44
2023-04-11T06:24:03.514Z,1005.51
2023-04-11T06:25:03.482Z,1005.52
2023-04-11T06:26:03.507Z,1005.58
2023-04-11T06:27:02.811Z,1005.57
2023-04-11T06:28:02.805Z,1005.61
2023-04-11T06:29:02.789Z,1005.61
2023-04-11T06:30:02.786Z,1005.62
2023-04-11T06:31:03.518Z,1005.61
2023-04-11T06:32:02.757Z,1005.57
2023-04-11T06:33:02.863Z,1005.59
2023-04-11T06:34:02.741Z,1005.66
2023-04-11T06:35:03.380Z,1005.69
2023-04-11T06:36:05.967Z,1005.66
2023-04-11T06:37:03.655Z,1005.73
2023-04-11T06:38:03.361Z,1005.68
2023-04-11T06:39:03.385Z,1005.70
2023-04-11T06:40:03.320Z,1005.78
2023-04-11T06:41:02.676Z,1005.78
2023-04-11T06:42:02.697Z,1005.85
2023-04-11T06:43:03.309Z,1005.84
2023-04-11T06:44:02.666Z,1005.83
2023-04-11T06:45:02.646Z,1005.77
2023-04-11T06:46:03.303Z,1005.80
2023-04-11T06:47:02.608Z,1005.83
2023-04-11T06:48:03.270Z,1005.84
2023-04-11T06:49:03.246Z,1005.85
2023-04-11T06:50:03.214Z,1005.84
2023-04-11T06:51:02.610Z,1005.88
2023-04-11T06:52:02.649Z,1005.89
2023-04-11T06:53:02.657Z,1005.94
2023-04-11T06:54:02.604Z,1006.14
2023-04-11T06:55:03.165Z,1006.19
2023-04-11T06:56:03.209Z,1005.96
2023-04-11T06:57:02.510Z,1006.12
2023-04-11T06:58:03.149Z,1006.09
2023-04-11T06:59:03.151Z,1006.07
2023-04-11T07:00:03.131Z,1006.00
2023-04-11T07:01:03.125Z,1006.07
2023-04-11T07:02:02.644Z,1005.99
2023-04-11T07:03:02.755Z,1006.09
2023-04-11T07:04:03.208Z,1006.05
2023-04-11T07:05:02.461Z,1006.14
2023-04-11T07:06:03.117Z,1006.17
2023-04-11T07:07:02.379Z,1006.07
2023-04-11T07:08:02.357Z,1006.19
2023-04-11T07:09:02.381Z,1006.17
2023-04-11T07:10:02.373Z,1006.18
2023-04-11T07:11:03.017Z,1006.25
2023-04-11T07:12:02.995Z,1006.21
2023-04-11T07:13:02.987Z,1006.26
2023-04-11T07:14:03.004Z,1006.30
2023-04-11T07:15:02.950Z,1006.29
2023-04-11T07:16:02.316Z,1006.33
2023-04-11T07:17:02.266Z,1006.37
2023-04-11T07:18:03.260Z,1006.37
2023-04-11T07:19:02.920Z,1006.37
2023-04-11T07:20:02.246Z,1006.49
2023-04-11T07:21:02.226Z,1006.52
2023-04-11T07:22:02.897Z,1006.59
2023-04-11T07:23:02.280Z,1006.46
2023-04-11T07:24:02.866Z,1006.66
2023-04-11T07:25:02.846Z,1006.84
2023-04-11T07:26:02.852Z,1006.89
2023-04-11T07:27:02.853Z,1006.95
2023-04-11T07:28:02.828Z,1006.98
2023-04-11T07:29:02.152Z,1007.08
2023-04-11T07:30:02.808Z,1007.14
2023-04-11T07:31:02.803Z,1007.32
2023-04-11T07:32:02.280Z,1007.17
2023-04-11T07:33:02.806Z,1007.36
2023-04-11T07:34:02.074Z,1007.29
2023-04-11T07:35:02.735Z,1006.78
2023-04-11T07:36:02.779Z,1007.13
2023-04-11T07:37:02.072Z,1007.12
2023-04-11T07:38:02.082Z,1006.94
2023-04-11T07:39:02.118Z,1006.72
2023-04-11T07:40:02.676Z,1006.71
2023-04-11T07:41:02.681Z,1007.23
2023-04-11T07:42:02.680Z,1006.77
2023-04-11T07:43:01.979Z,1006.66
2023-04-11T07:44:02.649Z,1006.74
2023-04-11T07:45:01.982Z,1006.73
2023-04-11T07:46:02.739Z,1006.66
2023-04-11T07:47:01.965Z,1006.72
2023-04-11T07:48:02.665Z,1006.71
2023-04-11T07:49:02.593Z,1006.72
2023-04-11T07:50:01.984Z,1007.03
2023-04-11T07:51:01.926Z,1007.16
2023-04-11T07:52:01.881Z,1006.86
2023-04-11T07:53:02.595Z,1006.81
2023-04-11T07:54:02.548Z,1006.79
2023-04-11T07:55:01.911Z,1006.84
2023-04-11T07:56:02.518Z,1006.85
2023-04-11T07:57:02.521Z,1006.89
2023-04-11T07:58:01.856Z,1007.30
2023-04-11T07:59:01.822Z,1007.01
2023-04-11T08:00:02.464Z,1006.98
2023-04-11T08:01:01.826Z,1006.92
2023-04-11T08:02:02.588Z,1007.01
2023-04-11T08:03:02.613Z,1006.89
2023-04-11T08:04:02.609Z,1006.91
2023-04-11T08:05:01.982Z,1006.94
2023-04-11T08:06:02.409Z,1006.93
2023-04-11T08:07:02.401Z,1007.06
2023-04-11T08:08:02.699Z,1007.04
2023-04-11T08:09:02.388Z,1007.22
2023-04-11T08:10:02.356Z,1007.08
2023-04-11T08:11:02.364Z,1007.06
2023-04-11T08:12:01.748Z,1006.99
2023-04-11T08:13:01.688Z,1007.06
2023-04-11T08:14:02.332Z,1007.05
2023-04-11T08:15:01.658Z,1007.13
2023-04-11T08:16:02.312Z,1007.09
2023-04-11T08:17:02.394Z,1007.04
2023-04-11T08:18:01.641Z,1007.06
2023-04-11T08:19:02.271Z,1007.04
2023-04-11T08:20:02.573Z,1007.38
2023-04-11T08:21:02.263Z,1007.27
2023-04-11T08:22:02.243Z,1007.25
2023-04-11T08:23:04.135Z,1007.34
2023-04-11T08:24:01.594Z,1007.33
2023-04-11T08:25:01.546Z,1007.09
2023-04-11T08:26:01.513Z,1007.08
2023-04-11T08:27:02.190Z,1007.09
2023-04-11T08:28:02.240Z,1007.07
2023-04-11T08:29:02.176Z,1007.28
2023-04-11T08:30:01.534Z,1007.38
2023-04-11T08:31:01.502Z,1007.09
2023-04-11T08:32:02.138Z,1007.14
2023-04-11T08:33:01.491Z,1007.06
2023-04-11T08:34:03.865Z,1007.00
2023-04-11T08:35:01.504Z,1007.40
2023-04-11T08:36:01.451Z,1007.05
2023-04-11T08:37:02.116Z,1007.19
2023-04-11T08:38:02.074Z,1007.08
2023-04-11T08:39:02.068Z,1007.09
2023-04-11T08:40:01.387Z,1007.20
2023-04-11T08:41:01.417Z,1007.19
2023-04-11T08:42:02.054Z,1007.25
2023-04-11T08:43:01.543Z,1007.15
2023-04-11T08:44:03.268Z,1007.26
2023-04-11T08:45:01.977Z,1007.42
2023-04-11T08:46:02.314Z,1007.54
2023-04-11T08:47:01.316Z,1007.53
2023-04-11T08:48:01.338Z,1007.57
2023-04-11T08:49:02.234Z,1007.22
2023-04-11T08:50:01.917Z,1007.16
2023-04-11T08:51:01.940Z,1007.21
2023-04-11T08:52:02.182Z,1007.30
2023-04-11T08:53:01.221Z,1007.53
2023-04-11T08:54:01.905Z,1007.34
2023-04-11T08:55:02.001Z,1007.44
2023-04-11T08:56:01.206Z,1007.46
2023-04-11T08:57:01.864Z,1007.44
2023-04-11T08:58:01.172Z,1007.38
2023-04-11T08:59:01.162Z,1007.37
2023-04-11T09:00:01.181Z,1007.32
2023-04-11T09:01:01.838Z,1007.31
2023-04-11T09:02:01.944Z,1007.33
2023-04-11T09:03:01.894Z,1007.33
2023-04-11T09:04:01.794Z,1007.37
2023-04-11T09:05:01.152Z,1007.24
2023-04-11T09:06:01.769Z,1007.43
2023-04-11T09:07:02.040Z,1007.26
2023-04-11T09:08:01.742Z,1007.41
2023-04-11T09:09:01.754Z,1007.29
2023-04-11T09:10:02.018Z,1007.27
2023-04-11T09:11:01.738Z,1007.31
2023-04-11T09:12:01.975Z,1007.39
2023-04-11T09:13:01.685Z,1007.42
2023-04-11T09:14:01.952Z,1007.39
2023-04-11T09:15:02.026Z,1007.38
2023-04-11T09:16:01.737Z,1007.47
2023-04-11T09:17:00.974Z,1007.39
2023-04-11T09:18:01.678Z,1007.46
2023-04-11T09:19:01.638Z,1007.31
2023-04-11T09:20:01.596Z,1007.54
2023-04-11T09:21:01.618Z,1007.40
2023-04-11T09:22:00.933Z,1007.38
2023-04-11T09:23:01.624Z,1007.40
2023-04-11T09:24:01.573Z,1007.32
2023-04-11T09:25:01.858Z,1007.38
2023-04-11T09:26:01.558Z,1007.33
2023-04-11T09:27:00.857Z,1007.46
2023-04-11T09:28:00.857Z,1007.43
2023-04-11T09:29:00.853Z,1007.34
2023-04-11T09:30:00.875Z,1007.33
2023-04-11T09:31:01.593Z,1007.26
2023-04-11T09:32:01.495Z,1007.25
2023-04-11T09:33:00.822Z,1007.34
2023-04-11T09:34:01.111Z,1007.39
2023-04-11T09:35:01.495Z,1007.39
2023-04-11T09:36:01.739Z,1007.41
2023-04-11T09:37:01.463Z,1007.36
2023-04-11T09:38:01.440Z,1007.49
2023-04-11T09:39:00.732Z,1007.48
2023-04-11T09:40:01.935Z,1007.42
2023-04-11T09:41:00.737Z,1007.44
2023-04-11T09:42:01.702Z,1007.47
2023-04-11T09:43:01.409Z,1007.44
2023-04-11T09:44:01.388Z,1007.33
2023-04-11T09:45:00.686Z,1007.41
2023-04-11T09:46:01.359Z,1007.34
2023-04-11T09:47:00.724Z,1007.38
2023-04-11T09:48:01.337Z,1007.40
2023-04-11T09:49:01.731Z,1007.43
2023-04-11T09:50:01.297Z,1007.35
2023-04-11T09:51:01.291Z,1007.35
2023-04-11T09:52:00.590Z,1007.35
2023-04-11T09:53:00.591Z,1007.37
2023-04-11T09:54:00.576Z,1007.30
2023-04-11T09:55:01.222Z,1007.30
2023-04-11T09:56:01.242Z,1007.30
2023-04-11T09:57:00.547Z,1007.25
2023-04-11T09:58:00.528Z,1007.20
2023-04-11T09:59:01.230Z,1007.29
2023-04-11T10:00:01.170Z,1007.26
2023-04-11T10:01:01.175Z,1007.21
2023-04-11T10:02:00.619Z,1007.17
2023-04-11T10:03:00.674Z,1007.31
2023-04-11T10:04:01.614Z,1007.24
2023-04-11T10:05:02.480Z,1007.29
2023-04-11T10:06:01.121Z,1007.29
2023-04-11T10:07:01.121Z,1007.34
2023-04-11T10:08:00.411Z,1007.30
2023-04-11T10:09:00.409Z,1007.32
2023-04-11T10:10:00.415Z,1007.24
2023-04-11T10:11:01.064Z,1007.25
2023-04-11T10:12:01.057Z,1007.17
2023-04-11T10:13:00.374Z,1007.23
2023-04-11T10:14:00.345Z,1007.26
2023-04-11T10:15:01.318Z,1007.28
2023-04-11T10:16:00.340Z,1007.37
2023-04-11T10:17:01.001Z,1007.30
2023-04-11T10:18:01.036Z,1007.40
2023-04-11T10:19:00.984Z,1007.35
2023-04-11T10:20:00.954Z,1007.44
2023-04-11T10:21:00.275Z,1007.31
2023-04-11T10:22:00.950Z,1007.58
2023-04-11T10:23:00.937Z,1007.43
2023-04-11T10:24:00.928Z,1007.39
2023-04-11T10:25:00.895Z,1007.44
2023-04-11T10:26:00.234Z,1007.57
2023-04-11T10:27:00.241Z,1007.51
2023-04-11T10:28:01.227Z,1007.50
2023-04-11T10:29:00.181Z,1007.47
2023-04-11T10:30:00.844Z,1007.48
2023-04-11T10:31:00.853Z,1007.43
2023-04-11T10:32:00.370Z,1007.40
2023-04-11T10:33:00.870Z,1007.47
2023-04-11T10:34:00.821Z,1007.50
2023-04-11T10:35:00.800Z,1007.49
2023-04-11T10:36:00.813Z,1007.37
2023-04-11T10:37:00.792Z,1007.34
2023-04-11T10:38:00.118Z,1007.61
2023-04-11T10:39:00.765Z,1007.24
2023-04-11T10:40:00.154Z,1007.27
2023-04-11T10:41:00.741Z,1007.23
2023-04-11T10:42:00.739Z,1007.29
2023-04-11T10:43:00.723Z,1007.34
2023-04-11T10:44:00.043Z,1007.36
2023-04-11T10:45:00.055Z,1007.35
2023-04-11T10:46:00.690Z,1007.35
2023-04-11T10:47:00.005Z,1007.41
2023-04-11T10:48:00.770Z,1007.40
2023-04-11T10:49:00.715Z,1007.43
2023-04-11T10:49:59.985Z,1007.41
2023-04-11T10:51:00.638Z,1007.43
2023-04-11T10:51:59.938Z,1007.41
2023-04-11T10:53:00.619Z,1007.28
2023-04-11T10:54:01.119Z,1007.46
2023-04-11T10:55:00.576Z,1007.41
2023-04-11T10:55:59.896Z,1007.47
2023-04-11T10:57:00.568Z,1007.49
2023-04-11T10:58:00.568Z,1007.46
2023-04-11T10:58:59.870Z,1007.39
2023-04-11T11:00:00.535Z,1007.42
2023-04-11T11:00:59.880Z,1007.40
2023-04-11T11:02:00.638Z,1007.46
2023-04-11T11:03:00.675Z,1007.35
2023-04-11T11:04:00.783Z,1007.36
2023-04-11T11:05:00.568Z,1007.37
2023-04-11T11:05:59.804Z,1007.39
2023-04-11T11:06:59.823Z,1007.34
2023-04-11T11:08:00.451Z,1007.39
2023-04-11T11:09:00.443Z,1007.30
2023-04-11T11:10:00.409Z,1007.42
2023-04-11T11:10:59.726Z,1007.32
2023-04-11T11:11:59.734Z,1007.38
2023-04-11T11:12:59.701Z,1007.37
2023-04-11T11:13:59.759Z,1007.38
2023-04-11T11:15:00.358Z,1007.41
2023-04-11T11:16:00.414Z,1007.36
2023-04-11T11:17:00.474Z,1007.42
2023-04-11T11:17:59.698Z,1007.36
2023-04-11T11:18:59.665Z,1007.42
2023-04-11T11:20:00.308Z,1007.45
2023-04-11T11:21:00.313Z,1007.52
2023-04-11T11:22:00.302Z,1007.51
2023-04-11T11:23:00.291Z,1007.49
2023-04-11T11:23:59.660Z,1007.41
2023-04-11T11:24:59.593Z,1007.48
2023-04-11T11:26:00.269Z,1007.53
2023-04-11T11:27:00.246Z,1007.55
2023-04-11T11:28:00.238Z,1007.55
2023-04-11T11:28:59.529Z,1007.58
2023-04-11T11:29:59.532Z,1007.48
2023-04-11T11:31:00.202Z,1007.51
2023-04-11T11:31:59.556Z,1007.58
2023-04-11T11:33:00.201Z,1007.59
2023-04-11T11:34:18.371Z,1007.58
2023-04-11T11:35:00.506Z,1007.57
2023-04-11T11:35:59.465Z,1007.58
2023-04-11T11:37:00.248Z,1007.62
2023-04-11T11:37:59.449Z,1007.64
2023-04-11T11:38:59.562Z,1007.71
2023-04-11T11:40:00.129Z,1007.66
2023-04-11T11:41:00.114Z,1007.67
2023-04-11T11:41:59.403Z,1007.59
2023-04-11T11:42:59.393Z,1007.59
2023-04-11T11:44:00.098Z,1007.58
2023-04-11T11:45:00.041Z,1007.62
2023-04-11T11:45:59.377Z,1007.59
2023-04-11T11:46:59.351Z,1007.61
2023-04-11T11:47:59.359Z,1007.62
2023-04-11T11:49:00.314Z,1007.69
2023-04-11T11:49:59.979Z,1007.67
2023-04-11T11:50:59.988Z,1007.60
2023-04-11T11:51:59.291Z,1007.63
2023-04-11T11:52:59.964Z,1007.64
2023-04-11T11:53:59.274Z,1007.61
2023-04-11T11:54:59.291Z,1007.64
2023-04-11T11:55:59.263Z,1007.70
2023-04-11T11:56:59.242Z,1007.65
2023-04-11T11:57:59.922Z,1007.74
2023-04-11T11:58:59.904Z,1007.71
2023-04-11T11:59:59.876Z,1007.70
2023-04-11T12:00:59.890Z,1007.70
2023-04-11T12:01:59.895Z,1007.72
2023-04-11T12:03:00.124Z,1007.70
2023-04-11T12:04:00.252Z,1007.68
2023-04-11T12:04:59.365Z,1007.73